createdAt,value
2023-03-14T13:08:31.463Z,93269.00
2023-03-14T16:14:51.481Z,93749.00
2023-03-14T16:18:51.041Z,93757.00
2023-03-14T16:22:51.267Z,93751.00
2023-03-14T16:26:51.354Z,93763.00
2023-03-14T16:30:51.005Z,93773.00
2023-03-14T16:34:51.301Z,93782.00
2023-03-14T16:38:51.270Z,93792.00
2023-03-14T16:43:14.386Z,93808.00
2023-03-14T16:46:51.813Z,93812.00
2023-03-14T16:50:50.746Z,93816.00
2023-03-14T16:54:50.769Z,93828.00
2023-03-14T16:58:50.648Z,93839.00
2023-03-14T17:02:50.795Z,93849.00
2023-03-14T17:06:50.613Z,93857.00
2023-03-14T17:10:50.786Z,93900.00
2023-03-14T17:14:50.796Z,93878.00
2023-03-14T17:18:50.485Z,93890.00
2023-03-14T17:22:50.783Z,93896.00
2023-03-14T17:26:50.390Z,93910.00
2023-03-14T17:30:50.823Z,93927.00
2023-03-14T17:34:50.812Z,93933.00
2023-03-14T17:38:50.337Z,93951.00
2023-03-14T17:42:50.295Z,93978.00
2023-03-14T17:46:50.569Z,93996.00
2023-03-14T17:50:52.425Z,94022.00
2023-03-14T17:54:50.773Z,94022.00
2023-03-14T17:58:50.813Z,94035.00
2023-03-14T18:02:50.923Z,94053.00
2023-03-14T18:06:50.295Z,94055.00
2023-03-14T18:10:50.340Z,94069.00
2023-03-14T18:14:50.312Z,94084.00
2023-03-14T18:18:50.339Z,94084.00
2023-03-14T18:22:50.171Z,94098.00
2023-03-14T18:26:50.341Z,94102.00
2023-03-14T18:30:50.337Z,94116.00
2023-03-14T18:34:50.342Z,94114.00
2023-03-14T18:38:50.326Z,94119.00
2023-03-14T18:42:50.076Z,94114.00
2023-03-14T18:46:50.345Z,94133.00
2023-03-14T18:50:50.400Z,94133.00
2023-03-14T18:54:49.958Z,94149.00
2023-03-14T18:58:50.476Z,94145.00
2023-03-14T19:02:49.922Z,94155.00
2023-03-14T19:06:49.888Z,94161.00
2023-03-14T19:10:50.329Z,94159.00
2023-03-14T19:14:51.467Z,94161.00
2023-03-14T19:18:49.772Z,94170.00
2023-03-14T19:22:49.829Z,94166.00
2023-03-14T19:26:51.132Z,94170.00
2023-03-14T19:30:50.318Z,94174.00
2023-03-14T19:34:50.341Z,94178.00
2023-03-14T19:38:50.164Z,94178.00
2023-03-14T19:42:50.348Z,94178.00
2023-03-14T19:46:50.846Z,94182.00
2023-03-14T19:50:50.830Z,94200.00
2023-03-14T19:54:51.316Z,94211.00
2023-03-14T19:58:50.810Z,94211.00
2023-03-14T20:02:50.892Z,94200.00
2023-03-14T20:06:50.841Z,94208.00
2023-03-14T20:10:50.842Z,94219.00
2023-03-14T20:14:50.888Z,94231.00
2023-03-14T20:18:50.638Z,94237.00
2023-03-14T20:22:50.848Z,94239.00
2023-03-14T20:26:50.815Z,94245.00
2023-03-14T20:30:50.929Z,94251.00
2023-03-14T20:34:50.495Z,94253.00
2023-03-14T20:38:50.817Z,94255.00
2023-03-14T20:42:50.463Z,94257.00
2023-03-14T20:46:50.833Z,94257.00
2023-03-14T20:50:50.615Z,94264.00
2023-03-14T20:54:50.735Z,94270.00
2023-03-14T20:58:50.855Z,94270.00
2023-03-14T21:02:51.336Z,94282.00
2023-03-14T21:06:51.391Z,94280.00
2023-03-14T21:10:51.393Z,94280.00
2023-03-14T21:14:50.920Z,94278.00
2023-03-14T21:18:50.945Z,94282.00
2023-03-14T21:22:51.369Z,94286.00
2023-03-14T21:26:51.369Z,94286.00
2023-03-14T21:30:50.937Z,94286.00
2023-03-14T21:34:51.358Z,94292.00
2023-03-14T21:38:51.035Z,94292.00
2023-03-14T21:42:51.482Z,94296.00
2023-03-14T21:46:51.446Z,94300.00
2023-03-14T21:50:51.068Z,94302.00
2023-03-14T21:54:51.387Z,94306.00
2023-03-14T21:58:51.221Z,94311.00
2023-03-14T22:03:11.069Z,94323.00
2023-03-14T22:06:52.396Z,94333.00
2023-03-14T22:10:51.141Z,94337.00
2023-03-14T22:14:51.394Z,94347.00
2023-03-14T22:18:51.339Z,94347.00
2023-03-14T22:22:51.149Z,94347.00
2023-03-14T22:26:51.245Z,94355.00
2023-03-14T22:30:51.385Z,94355.00
2023-03-14T22:34:51.854Z,94353.00
2023-03-14T22:38:51.876Z,94345.00
2023-03-14T22:42:51.610Z,94355.00
2023-03-14T22:46:51.747Z,94362.00
2023-03-14T22:50:51.831Z,94370.00
2023-03-14T22:54:52.383Z,94360.00
2023-03-14T22:58:52.088Z,94366.00
2023-03-14T23:02:52.441Z,94376.00
2023-03-14T23:06:52.264Z,94374.00
2023-03-14T23:10:52.390Z,94378.00
2023-03-14T23:14:53.023Z,94396.00
2023-03-14T23:18:52.639Z,94398.00
2023-03-14T23:22:52.985Z,94403.00
2023-03-14T23:26:52.949Z,94402.00
2023-03-14T23:30:53.203Z,94396.00
2023-03-14T23:34:53.485Z,94403.00
2023-03-14T23:38:53.280Z,94400.00
2023-03-14T23:42:53.434Z,94403.00
2023-03-14T23:46:54.394Z,94407.00
2023-03-14T23:50:53.761Z,94415.00
2023-03-14T23:54:54.419Z,94415.00
2023-03-14T23:58:54.155Z,94413.00
